Aviation Digital Data Service (ADDS)

Output produced by METARs form (1100 UTC 18 June 2019)
found at http://www.aviationweather.gov/metar/data/
 
Forecast for: LZPP (PIESTANY , SK)
Text: TAF LZPP 181100Z 1812/1821 22006KT CAVOK
Forecast period: 1200 to 2100 UTC 18 June 2019
Forecast type: FROM: standard forecast or significant change
Winds: from the SW (220 degrees) at 7 MPH (6 knots; 3.1 m/s)
Visibility: 6 or more miles 10+ km)
Ceiling: unknown
Clouds: missing
Weather: NSW  (no significant weather)